Time;durP1;ratioP1;P1;durP2;ratioP2;P2;SDS_P1;SDS_P2;PMS_P1;PMS_P2;Temp;Humidity;BMP_temperature;BMP_pressure;BME280_temperature;BME280_humidity;BME280_pressure;Samples;Min_cycle;Max_cycle;Signal;HPM_P1;HPM_P2
2024/01/11 00:01:10;;;;;;;116.47;51.15;;;;;;;-8.11;80.01;98804.75;10367283;28;20036;-49
2024/01/11 00:06:09;;;;;;;101.75;47.58;;;;;;;-8.21;80.77;98794.63;10365819;28;20064;-49
2024/01/11 00:11:08;;;;;;;132.52;60.65;;;;;;;-8.06;80.31;98820.28;10367998;28;20033;-49
2024/01/11 00:16:07;;;;;;;97.25;48.40;;;;;;;-8.21;80.28;98804.69;10364229;28;20039;-48
2024/01/11 00:21:05;;;;;;;82.47;38.25;;;;;;;-8.04;80.53;98817.13;10365960;28;20120;-49
2024/01/11 00:26:04;;;;;;;68.40;35.42;;;;;;;-8.53;79.87;98738.91;10368071;28;20045;-48
2024/01/11 00:31:04;;;;;;;71.93;34.95;;;;;;;-8.26;80.71;98783.25;10363446;28;20750;-48
2024/01/11 00:36:03;;;;;;;96.07;46.58;;;;;;;-9.20;79.65;98603.03;10366369;28;20076;-48
2024/01/11 00:41:03;;;;;;;80.57;40.90;;;;;;;-8.48;80.04;98733.53;10364278;28;20060;-48
2024/01/11 00:46:01;;;;;;;125.40;60.33;;;;;;;-8.15;80.42;98789.25;10366959;28;20077;-48
2024/01/11 00:51:00;;;;;;;124.05;53.45;;;;;;;-8.39;79.42;98742.66;10363088;28;20127;-48
2024/01/11 00:56:00;;;;;;;103.53;48.40;;;;;;;-8.29;80.09;98798.09;10365393;28;20021;-47
2024/01/11 01:00:59;;;;;;;107.68;49.92;;;;;;;-8.34;81.20;98791.78;10366736;28;20124;-49
2024/01/11 01:05:58;;;;;;;108.00;49.47;;;;;;;-8.29;79.79;98780.47;10364395;28;20024;-50
2024/01/11 01:10:57;;;;;;;127.97;55.13;;;;;;;-8.37;80.06;98772.25;10363118;28;20033;-48
2024/01/11 01:15:56;;;;;;;82.55;38.55;;;;;;;-8.33;80.02;98763.31;10360694;28;20045;-48
2024/01/11 01:20:55;;;;;;;82.68;38.22;;;;;;;-8.49;80.96;98749.41;10361801;28;20052;-48
2024/01/11 01:25:54;;;;;;;70.70;33.30;;;;;;;-8.38;79.98;98762.91;10364025;28;20131;-48
2024/01/11 01:30:53;;;;;;;51.72;25.67;;;;;;;-9.10;79.85;98668.44;10365066;28;20056;-48
2024/01/11 01:35:52;;;;;;;54.03;26.55;;;;;;;-8.66;79.76;98757.06;10363755;28;20025;-50
2024/01/11 01:40:51;;;;;;;41.47;21.38;;;;;;;-9.80;81.22;98575.06;10364074;28;20104;-48
2024/01/11 01:45:51;;;;;;;45.13;22.60;;;;;;;-8.65;81.19;98751.28;10363510;28;20490;-46
2024/01/11 01:50:50;;;;;;;57.90;31.42;;;;;;;-9.76;81.46;98526.88;10363358;28;20108;-47
2024/01/11 01:55:52;;;;;;;87.30;44.25;;;;;;;-8.53;80.47;98722.19;10363652;28;20152;-47
2024/01/11 02:00:52;;;;;;;86.70;41.22;;;;;;;-8.50;80.73;98719.91;10363283;28;20489;-49
2024/01/11 02:05:51;;;;;;;86.65;45.80;;;;;;;-8.46;81.20;98711.03;10362676;28;20087;-47
2024/01/11 02:10:51;;;;;;;79.65;42.53;;;;;;;-8.48;79.86;98703.31;10358468;28;20072;-48
2024/01/11 02:15:50;;;;;;;85.88;41.90;;;;;;;-8.46;80.56;98700.97;10358884;28;20132;-46
2024/01/11 02:20:49;;;;;;;71.10;37.25;;;;;;;-8.52;80.74;98695.38;10360794;28;20120;-48
2024/01/11 02:25:48;;;;;;;91.65;42.63;;;;;;;-8.56;79.69;98698.38;10359391;28;20114;-47
2024/01/11 02:30:47;;;;;;;94.93;45.63;;;;;;;-8.86;80.22;98668.13;10360393;28;20033;-46
2024/01/11 02:35:46;;;;;;;69.55;35.10;;;;;;;-8.61;81.26;98702.09;10361052;28;20127;-48
2024/01/11 02:40:46;;;;;;;60.80;32.63;;;;;;;-9.12;80.44;98609.63;10360530;28;20117;-47
2024/01/11 02:45:45;;;;;;;60.25;31.95;;;;;;;-8.64;80.33;98683.47;10360625;28;20060;-47
2024/01/11 02:50:44;;;;;;;62.97;33.00;;;;;;;-8.97;79.62;98622.66;10360936;28;20044;-48
2024/01/11 02:55:43;;;;;;;86.43;43.35;;;;;;;-8.63;80.50;98684.38;10360416;28;20115;-47
2024/01/11 03:00:42;;;;;;;101.72;46.55;;;;;;;-8.71;80.33;98693.75;10360365;28;20140;-47
2024/01/11 03:05:41;;;;;;;94.38;44.30;;;;;;;-8.94;80.03;98669.06;10360144;28;20102;-47
2024/01/11 03:10:40;;;;;;;73.55;39.47;;;;;;;-8.88;79.28;98678.81;10359904;28;20045;-48
2024/01/11 03:15:39;;;;;;;74.97;38.55;;;;;;;-9.38;79.08;98603.16;10360725;28;20410;-48
2024/01/11 03:20:38;;;;;;;69.43;35.67;;;;;;;-8.85;79.80;98684.97;10359684;28;20047;-49
2024/01/11 03:25:36;;;;;;;62.67;33.45;;;;;;;-8.77;79.66;98700.78;10361633;28;20044;-47
2024/01/11 03:30:35;;;;;;;74.03;34.42;;;;;;;-8.93;78.52;98682.53;10370052;28;20128;-47
2024/01/11 03:35:34;;;;;;;63.28;31.50;;;;;;;-9.21;79.08;98657.44;10368748;28;20108;-47
2024/01/11 03:40:33;;;;;;;69.95;37.00;;;;;;;-9.82;78.98;98562.38;10367644;28;20028;-47
2024/01/11 03:45:32;;;;;;;52.65;27.33;;;;;;;-9.14;79.43;98659.75;10367552;28;20593;-47
2024/01/11 03:50:31;;;;;;;52.08;25.17;;;;;;;-9.41;79.60;98629.66;10365353;28;20115;-46
2024/01/11 03:55:30;;;;;;;51.63;26.58;;;;;;;-9.23;79.84;98658.94;10367116;28;20071;-47
2024/01/11 04:00:30;;;;;;;61.40;32.65;;;;;;;-9.21;78.94;98646.50;10366661;28;20104;-48
2024/01/11 04:05:29;;;;;;;89.18;42.00;;;;;;;-9.21;79.27;98647.38;10364374;28;20145;-47
2024/01/11 04:10:28;;;;;;;76.05;37.90;;;;;;;-9.38;79.41;98640.84;10366001;28;20220;-47
2024/01/11 04:15:26;;;;;;;67.22;33.78;;;;;;;-9.59;80.78;98611.28;10365811;28;20120;-47
2024/01/11 04:20:25;;;;;;;74.75;38.45;;;;;;;-9.35;80.47;98623.53;10366312;28;20043;-48
2024/01/11 04:25:24;;;;;;;65.82;33.50;;;;;;;-9.35;79.25;98626.03;10366345;28;20057;-47
2024/01/11 04:30:23;;;;;;;67.35;34.95;;;;;;;-9.59;79.04;98563.56;10363633;28;20033;-47
2024/01/11 04:35:22;;;;;;;70.97;36.67;;;;;;;-9.42;79.10;98592.72;10366423;28;20033;-47
2024/01/11 04:40:21;;;;;;;76.22;36.22;;;;;;;-9.34;79.46;98597.63;10364419;28;20099;-47
2024/01/11 04:45:20;;;;;;;114.63;50.10;;;;;;;-9.35;79.79;98612.59;10365097;28;20111;-48
2024/01/11 04:50:19;;;;;;;62.50;31.15;;;;;;;-9.63;78.96;98569.06;10363508;28;20112;-50
2024/01/11 04:55:18;;;;;;;59.83;31.85;;;;;;;-9.23;79.57;98632.91;10366532;28;20124;-47
2024/01/11 05:00:17;;;;;;;54.67;26.73;;;;;;;-10.38;79.81;98410.06;10362657;28;20072;-48
2024/01/11 05:05:16;;;;;;;65.47;31.92;;;;;;;-9.52;78.81;98583.50;10363485;28;20056;-48
2024/01/11 05:10:15;;;;;;;67.80;32.58;;;;;;;-9.56;78.04;98591.47;10360391;28;20033;-49
2024/01/11 05:15:14;;;;;;;50.08;26.05;;;;;;;-9.52;78.38;98612.00;10363495;28;20064;-47
2024/01/11 05:20:14;;;;;;;74.60;35.45;;;;;;;-9.87;78.14;98556.06;10363912;28;20120;-47
2024/01/11 05:25:14;;;;;;;69.85;35.90;;;;;;;-9.74;78.13;98563.06;10363854;28;20494;-48
2024/01/11 05:30:13;;;;;;;64.57;30.85;;;;;;;-10.93;77.80;98345.75;10362406;28;20144;-49
2024/01/11 05:35:12;;;;;;;56.65;28.85;;;;;;;-10.05;78.53;98496.66;10363907;28;20064;-49
2024/01/11 05:40:11;;;;;;;65.88;30.48;;;;;;;-9.59;78.45;98606.25;10362516;28;20140;-48
2024/01/11 05:45:10;;;;;;;59.53;28.92;;;;;;;-9.63;78.52;98595.06;10363003;28;20144;-48
2024/01/11 05:50:09;;;;;;;69.00;33.58;;;;;;;-9.52;78.16;98599.44;10365511;28;20025;-49
2024/01/11 05:55:08;;;;;;;83.75;35.63;;;;;;;-9.51;78.54;98585.25;10361680;28;20143;-49
2024/01/11 06:00:07;;;;;;;80.28;38.42;;;;;;;-9.47;79.03;98593.91;10359419;28;20390;-46
2024/01/11 06:05:09;;;;;;;100.15;47.65;;;;;;;-9.68;79.03;98586.25;10362190;28;20458;-47
2024/01/11 06:10:08;;;;;;;92.43;43.60;;;;;;;-9.90;78.78;98550.75;10360362;28;20130;-49
2024/01/11 06:15:09;;;;;;;94.07;42.95;;;;;;;-9.82;78.78;98572.44;10360371;28;20061;-48
2024/01/11 06:20:09;;;;;;;65.25;34.35;;;;;;;-9.96;79.06;98557.75;10326624;28;20132;-49
2024/01/11 06:25:08;;;;;;;70.47;34.85;;;;;;;-10.13;79.17;98524.47;10307161;28;20137;-48
2024/01/11 06:30:08;;;;;;;73.35;34.67;;;;;;;-9.81;79.07;98533.13;10312204;28;20032;-49
2024/01/11 06:35:07;;;;;;;82.05;40.13;;;;;;;-9.66;79.09;98548.69;10319285;28;20064;-51
2024/01/11 06:40:08;;;;;;;69.03;33.97;;;;;;;-10.13;77.96;98499.38;10314789;28;20241;-48
2024/01/11 06:45:08;;;;;;;58.08;29.23;;;;;;;-9.78;79.22;98546.84;10316103;28;20053;-47
2024/01/11 06:50:08;;;;;;;124.32;39.47;;;;;;;-10.04;80.03;98518.50;10313648;28;20084;-47
2024/01/11 06:55:07;;;;;;;74.68;35.10;;;;;;;-9.66;81.30;98551.19;10312407;28;20065;-48
2024/01/11 07:00:07;;;;;;;99.45;42.58;;;;;;;-9.92;80.48;98467.78;10317256;28;20057;-50
2024/01/11 07:05:07;;;;;;;93.80;46.53;;;;;;;-9.09;81.03;98547.03;10318302;28;20128;-48
2024/01/11 07:10:08;;;;;;;82.78;43.72;;;;;;;-8.85;80.40;98545.75;10315864;28;20083;-49
2024/01/11 07:15:07;;;;;;;75.57;39.00;;;;;;;-8.94;78.79;98535.78;10314966;28;20062;-48
2024/01/11 07:20:07;;;;;;;66.95;36.88;;;;;;;-8.69;78.77;98545.47;10309560;28;21128;-48
2024/01/11 07:25:07;;;;;;;85.78;43.13;;;;;;;-8.50;79.22;98541.25;10314205;28;20585;-48
2024/01/11 07:30:06;;;;;;;110.18;57.67;;;;;;;-8.57;77.46;98526.38;10314744;28;20120;-49
2024/01/11 07:35:06;;;;;;;100.45;51.40;;;;;;;-8.63;77.27;98465.50;10316627;28;20052;-48
2024/01/11 07:40:10;;;;;;;105.22;54.17;;;;;;;-8.15;77.60;98527.38;10311282;28;20069;-48
2024/01/11 07:45:12;;;;;;;104.10;52.78;;;;;;;-7.91;76.92;98543.63;10320635;28;20447;-49
2024/01/11 07:50:12;;;;;;;89.47;49.17;;;;;;;-7.74;78.35;98537.47;10316634;28;20057;-48
2024/01/11 07:55:12;;;;;;;110.32;60.55;;;;;;;-7.98;77.67;98453.22;10314235;28;20128;-49
2024/01/11 08:00:11;;;;;;;113.65;59.47;;;;;;;-7.42;77.56;98509.84;10311943;28;20048;-49
2024/01/11 08:05:10;;;;;;;116.45;60.28;;;;;;;-7.27;76.66;98511.09;10315177;28;20550;-48
2024/01/11 08:10:09;;;;;;;122.35;66.43;;;;;;;-7.14;76.39;98504.50;10291712;28;20165;-48
2024/01/11 08:15:15;;;;;;;169.35;94.30;;;;;;;-7.34;77.76;98460.94;10282986;28;20132;-48
2024/01/11 08:20:14;;;;;;;162.93;85.78;;;;;;;-6.86;77.27;98512.56;10293276;28;20145;-48
2024/01/11 08:25:13;;;;;;;163.07;86.55;;;;;;;-7.21;76.75;98422.44;10303474;28;20489;-47
2024/01/11 08:30:12;;;;;;;198.70;110.25;;;;;;;-6.68;76.72;98477.81;10303952;28;20124;-48
2024/01/11 08:35:12;;;;;;;154.98;86.65;;;;;;;-6.37;76.44;98501.25;10292586;28;20124;-47
2024/01/11 08:40:11;;;;;;;158.38;87.50;;;;;;;-6.26;77.06;98489.44;10287115;28;20044;-49
2024/01/11 08:45:10;;;;;;;151.90;83.32;;;;;;;-6.08;76.13;98480.72;10287165;28;20164;-49
2024/01/11 08:50:13;;;;;;;139.60;75.47;;;;;;;-5.95;77.44;98477.47;10286612;28;20128;-48
2024/01/11 08:55:12;;;;;;;192.70;104.60;;;;;;;-5.73;77.25;98470.72;10285475;28;20137;-48
2024/01/11 09:00:12;;;;;;;164.88;90.68;;;;;;;-5.68;76.54;98423.03;10285259;28;20148;-49
2024/01/11 09:05:11;;;;;;;130.55;73.65;;;;;;;-5.21;75.08;98463.50;10285870;28;20124;-47
2024/01/11 09:10:13;;;;;;;112.10;64.35;;;;;;;-5.34;75.57;98421.25;10292637;28;20132;-49
2024/01/11 09:15:12;;;;;;;103.63;57.97;;;;;;;-5.24;75.64;98415.19;10287360;28;20219;-48
2024/01/11 09:20:14;;;;;;;100.35;59.75;;;;;;;-5.12;75.22;98384.81;10299237;28;20146;-48
2024/01/11 09:25:13;;;;;;;104.80;61.58;;;;;;;-4.57;76.62;98413.09;10313538;28;20370;-48
2024/01/11 09:30:12;;;;;;;;;;;;;;;-4.20;75.35;98414.81;10310397;28;20148;-48
2024/01/11 09:35:11;;;;;;;125.67;67.60;;;;;;;-4.16;75.30;98377.88;10307698;28;19956;-48
2024/01/11 09:40:10;;;;;;;131.77;76.60;;;;;;;-3.83;76.13;98384.28;10312151;28;20618;-48
2024/01/11 09:45:16;;;;;;;136.98;75.53;;;;;;;-3.91;75.05;98331.31;10311189;28;20136;-48
2024/01/11 09:50:20;;;;;;;132.02;72.82;;;;;;;-3.60;74.80;98370.56;10296912;28;20133;-48
2024/01/11 09:55:19;;;;;;;127.85;74.55;;;;;;;-4.06;75.20;98309.28;10298822;28;20124;-48
2024/01/11 10:00:23;;;;;;;195.27;102.05;;;;;;;-3.56;75.38;98351.31;10295195;28;20462;-48
2024/01/11 10:05:22;;;;;;;152.45;83.65;;;;;;;-3.45;76.44;98332.59;10283553;28;20056;-48
2024/01/11 10:10:21;;;;;;;129.27;75.20;;;;;;;-3.42;75.70;98292.16;10294040;28;20128;-48
2024/01/11 10:15:24;;;;;;;;;;;;;;;-3.01;74.39;98313.28;10280378;28;20460;-49
2024/01/11 10:20:23;;;;;;;124.22;72.90;;;;;;;-3.31;74.48;98248.84;10275651;28;20065;-48
2024/01/11 10:25:23;;;;;;;124.10;72.18;;;;;;;-3.31;74.68;98262.41;10280666;28;20136;-50
2024/01/11 10:30:23;;;;;;;129.48;74.38;;;;;;;-3.08;74.41;98299.34;10283861;28;20804;-49
2024/01/11 10:35:22;;;;;;;116.47;69.28;;;;;;;-3.06;74.86;98259.69;10283210;28;20045;-47
2024/01/11 10:40:25;;;;;;;113.13;63.38;;;;;;;-2.91;75.18;98280.03;10284605;28;20693;-47
2024/01/11 10:45:25;;;;;;;102.07;60.05;;;;;;;-2.82;75.05;98226.38;10283680;28;20124;-47
2024/01/11 10:50:25;;;;;;;107.85;59.67;;;;;;;-2.65;74.93;98210.44;10283037;28;20890;-48
2024/01/11 10:55:25;;;;;;;110.18;65.47;;;;;;;-2.28;74.48;98235.44;10284472;28;20850;-48
2024/01/11 11:00:25;;;;;;;174.63;107.55;;;;;;;-1.83;75.25;98236.25;10298350;28;20120;-47
2024/01/11 11:05:25;;;;;;;106.90;64.18;;;;;;;-1.69;73.29;98224.28;10314452;28;20116;-48
2024/01/11 11:10:26;;;;;;;100.72;60.83;;;;;;;-1.59;73.36;98195.13;10313033;28;20090;-48
2024/01/11 11:15:27;;;;;;;104.40;66.75;;;;;;;-1.51;72.78;98182.00;10317222;28;20073;-49
2024/01/11 11:20:27;;;;;;;100.93;51.28;;;;;;;-2.00;72.84;98122.56;10319037;28;20069;-49
2024/01/11 11:25:29;;;;;;;90.68;51.83;;;;;;;-1.48;73.32;98191.47;10315061;28;20475;-49
2024/01/11 11:30:28;;;;;;;88.97;55.40;;;;;;;-1.24;73.37;98186.78;10312619;28;20112;-47
2024/01/11 11:35:27;;;;;;;78.18;46.60;;;;;;;-0.97;72.84;98179.69;10312561;28;20028;-48
2024/01/11 11:40:37;;;;;;;65.40;40.08;;;;;;;-0.90;71.72;98176.66;10310865;28;20029;-48
2024/01/11 11:45:38;;;;;;;64.97;38.08;;;;;;;-0.83;72.62;98129.44;10310722;28;20065;-48
2024/01/11 11:50:37;;;;;;;62.55;38.83;;;;;;;-0.66;71.77;98109.88;10320923;28;20057;-49
2024/01/11 11:55:36;;;;;;;64.00;35.78;;;;;;;-0.24;71.40;98128.91;10327304;28;20088;-48
2024/01/11 12:00:35;;;;;;;59.08;36.92;;;;;;;-1.39;70.13;97919.59;10325082;28;20095;-51
2024/01/11 12:05:38;;;;;;;59.88;37.55;;;;;;;-0.29;72.06;98075.94;10320147;28;20067;-51
2024/01/11 12:10:37;;;;;;;53.55;31.73;;;;;;;0.13;69.68;98088.94;10312724;28;20073;-48
2024/01/11 12:15:36;;;;;;;42.08;27.45;;;;;;;-0.13;71.10;98007.00;10314373;28;20040;-48
2024/01/11 12:20:35;;;;;;;52.05;29.83;;;;;;;0.55;71.11;98081.44;10323241;28;20045;-48
2024/01/11 12:25:35;;;;;;;58.78;34.20;;;;;;;0.71;69.36;98062.50;10317754;28;20141;-50
2024/01/11 12:30:34;;;;;;;69.88;41.15;;;;;;;0.71;69.23;98055.75;10322900;28;20076;-48
2024/01/11 12:35:33;;;;;;;90.75;53.30;;;;;;;0.85;69.13;98033.28;10321094;28;20037;-49
2024/01/11 12:40:34;;;;;;;78.18;49.65;;;;;;;0.87;67.13;98042.81;10324333;28;20478;-50
2024/01/11 12:45:35;;;;;;;62.97;39.15;;;;;;;0.28;66.03;97933.91;10319993;28;20574;-49
2024/01/11 12:50:34;;;;;;;34.42;21.98;;;;;;;0.35;65.92;97989.50;10319425;28;20128;-48
2024/01/11 12:55:34;;;;;;;30.75;20.40;;;;;;;0.27;66.17;98013.84;10317335;28;20053;-46
2024/01/11 13:00:33;;;;;;;23.63;16.58;;;;;;;0.27;65.09;97995.97;10313773;28;20065;-49
2024/01/11 13:05:35;;;;;;;18.17;11.32;;;;;;;0.15;64.08;98000.56;10321436;28;20049;-49
2024/01/11 13:10:35;;;;;;;19.23;12.27;;;;;;;-0.07;65.58;97996.16;10315341;28;20116;-47
2024/01/11 13:15:36;;;;;;;19.08;12.88;;;;;;;-0.26;64.82;97974.06;10311889;28;20499;-48
2024/01/11 13:20:35;;;;;;;38.22;23.55;;;;;;;-0.32;64.74;97939.00;10315669;28;20069;-48
2024/01/11 13:25:33;;;;;;;32.70;20.15;;;;;;;-0.39;67.03;97897.03;10317893;28;20056;-49
2024/01/11 13:30:32;;;;;;;27.55;17.38;;;;;;;0.13;66.38;97948.59;10320037;28;20124;-50
2024/01/11 13:35:31;;;;;;;28.77;17.92;;;;;;;0.53;69.24;97958.78;10322232;28;20033;-48
2024/01/11 13:40:31;;;;;;;34.13;19.88;;;;;;;0.71;69.36;97943.34;10316690;28;20048;-47
2024/01/11 13:45:30;;;;;;;35.97;21.75;;;;;;;0.84;68.93;97926.81;10312171;28;20141;-48
2024/01/11 13:50:29;;;;;;;40.20;24.70;;;;;;;0.79;69.27;97897.69;10319797;28;20124;-48
2024/01/11 13:55:30;;;;;;;39.15;25.10;;;;;;;0.81;69.68;97891.81;10321437;28;20149;-48
2024/01/11 14:00:29;;;;;;;32.75;22.30;;;;;;;0.90;69.15;97904.94;10320730;28;20069;-48
2024/01/11 14:05:28;;;;;;;47.65;31.65;;;;;;;0.68;69.41;97881.91;10321355;28;20041;-48
2024/01/11 14:10:27;;;;;;;50.38;35.17;;;;;;;0.80;68.88;97905.41;10320136;28;20072;-48
2024/01/11 14:15:27;;;;;;;55.33;34.25;;;;;;;-0.73;70.19;97642.41;10321116;28;20065;-47
2024/01/11 14:20:27;;;;;;;50.28;29.42;;;;;;;0.71;69.53;97869.28;10315194;28;20067;-48
2024/01/11 14:25:26;;;;;;;28.38;19.23;;;;;;;0.53;71.00;97860.91;10316041;28;20144;-49
2024/01/11 14:30:25;;;;;;;37.45;23.83;;;;;;;0.29;70.70;97820.81;10314429;28;20040;-50
2024/01/11 14:35:24;;;;;;;40.45;24.48;;;;;;;-0.20;70.42;97761.00;10311224;28;20038;-48
2024/01/11 14:40:23;;;;;;;85.63;50.50;;;;;;;0.42;71.76;97875.78;10309905;28;20846;-51
2024/01/11 14:45:22;;;;;;;59.55;35.60;;;;;;;-0.02;70.84;97824.66;10308441;28;20076;-47
2024/01/11 14:50:21;;;;;;;53.60;31.85;;;;;;;0.23;71.00;97882.66;10314346;28;20041;-47
2024/01/11 14:55:20;;;;;;;54.30;31.30;;;;;;;0.02;72.12;97857.13;10312561;28;20510;-48
2024/01/11 15:00:19;;;;;;;66.80;39.15;;;;;;;-0.21;71.78;97860.38;10306584;28;20024;-48
2024/01/11 15:05:18;;;;;;;83.82;49.40;;;;;;;-0.59;73.14;97836.66;10310502;28;20046;-50
2024/01/11 15:10:17;;;;;;;91.68;54.22;;;;;;;-0.47;74.08;97852.47;10306409;28;20451;-51
2024/01/11 15:15:18;;;;;;;94.13;57.28;;;;;;;-0.49;74.07;97882.13;10297930;28;20526;-49
2024/01/11 15:20:17;;;;;;;85.88;51.47;;;;;;;-0.90;75.26;97830.22;10281212;28;20614;-48
2024/01/11 15:25:18;;;;;;;85.53;51.35;;;;;;;-0.89;75.67;97852.31;10279078;28;20060;-47
2024/01/11 15:30:17;;;;;;;95.00;56.65;;;;;;;-0.82;75.95;97882.38;10288366;28;20124;-46
2024/01/11 15:35:16;;;;;;;84.80;54.22;;;;;;;-1.00;76.98;97871.38;10290412;28;20030;-49
2024/01/11 15:40:15;;;;;;;118.43;69.45;;;;;;;-1.20;77.41;97880.59;10299009;28;20037;-48
2024/01/11 15:45:14;;;;;;;128.38;73.38;;;;;;;-1.37;77.71;97864.53;10308940;28;20172;-48
2024/01/11 15:50:13;;;;;;;148.13;82.30;;;;;;;-1.30;78.06;97901.34;10299006;28;20214;-48
2024/01/11 15:55:12;;;;;;;168.75;94.97;;;;;;;-1.57;78.95;97885.63;10294122;28;20451;-50
2024/01/11 16:00:12;;;;;;;;;;;;;;;-1.54;79.64;97888.31;10284704;28;20124;-47
2024/01/11 16:05:11;;;;;;;150.38;89.85;;;;;;;-1.69;79.78;97863.88;10280629;28;20368;-47
2024/01/11 16:10:10;;;;;;;152.05;90.25;;;;;;;-1.75;80.35;97870.31;10304269;28;20383;-49
2024/01/11 16:15:09;;;;;;;;;;;;;;;-1.79;79.97;97884.56;10356620;28;20067;-47
2024/01/11 16:20:10;;;;;;;172.40;97.07;;;;;;;-2.04;80.60;97856.19;10357595;28;19959;-47
2024/01/11 16:25:09;;;;;;;157.43;91.05;;;;;;;-2.08;81.40;97858.59;10357764;28;20124;-47
2024/01/11 16:30:09;;;;;;;150.43;85.38;;;;;;;-2.09;81.70;97864.44;10358291;28;20136;-47
2024/01/11 16:35:08;;;;;;;123.40;73.03;;;;;;;-2.28;82.05;97849.06;10364696;28;20554;-47
2024/01/11 16:40:09;;;;;;;173.23;100.35;;;;;;;-2.22;81.51;97844.28;10365664;28;20064;-49
2024/01/11 16:45:09;;;;;;;133.43;81.07;;;;;;;-2.29;81.96;97852.41;10366107;28;20107;-47
2024/01/11 16:50:09;;;;;;;134.15;79.38;;;;;;;-2.50;82.58;97842.00;10366494;28;20072;-47
2024/01/11 16:55:08;;;;;;;;;;;;;;;-2.42;82.26;97855.13;10366638;28;20056;-50
2024/01/11 17:00:07;;;;;;;150.25;84.07;;;;;;;-2.54;82.53;97835.91;10365136;28;20011;-48
2024/01/11 17:05:06;;;;;;;;;;;;;;;-2.54;82.63;97835.06;10365838;28;20057;-47
2024/01/11 17:10:05;;;;;;;126.38;68.35;;;;;;;-2.58;82.34;97841.63;10365244;28;19912;-47
2024/01/11 17:15:04;;;;;;;;;;;;;;;-2.62;82.95;97841.38;10365259;28;20063;-48
2024/01/11 17:20:03;;;;;;;136.43;79.28;;;;;;;-3.07;83.08;97767.97;10364370;28;19920;-50
2024/01/11 17:25:03;;;;;;;147.25;78.82;;;;;;;-2.74;83.38;97822.19;10364994;28;20522;-48
2024/01/11 17:30:04;;;;;;;131.52;69.50;;;;;;;-2.98;83.63;97786.22;10364289;28;20059;-48
2024/01/11 17:35:03;;;;;;;139.45;74.07;;;;;;;-4.83;83.41;97522.03;10363065;28;20076;-48
2024/01/11 17:40:02;;;;;;;73.72;41.83;;;;;;;-3.26;84.04;97788.13;10362235;28;20073;-48
2024/01/11 17:45:01;;;;;;;;;;;;;;;-3.03;83.90;97825.75;10363849;28;20116;-48
2024/01/11 17:50:01;;;;;;;72.45;40.05;;;;;;;-3.84;84.16;97715.69;10363030;28;19955;-48
2024/01/11 17:55:01;;;;;;;92.13;50.70;;;;;;;-3.33;83.97;97827.50;10364054;28;20068;-49
2024/01/11 18:00:00;;;;;;;71.45;45.42;;;;;;;-3.38;84.91;97834.00;10362491;28;20068;-48
2024/01/11 18:04:59;;;;;;;;;;;;;;;-3.25;83.79;97820.31;10363771;28;20072;-48
2024/01/11 18:09:58;;;;;;;63.90;36.00;;;;;;;-3.28;83.52;97825.22;10363105;28;19921;-50
2024/01/11 18:14:57;;;;;;;78.60;44.55;;;;;;;-3.34;83.63;97811.41;10361750;28;20140;-50
2024/01/11 18:19:56;;;;;;;;;;;;;;;-3.47;84.08;97814.06;10363140;28;20064;-48
2024/01/11 18:24:55;;;;;;;144.30;81.95;;;;;;;-3.57;84.69;97806.75;10362486;28;20041;-48
2024/01/11 18:29:55;;;;;;;155.77;90.97;;;;;;;-3.55;84.43;97805.19;10361747;28;20128;-48
2024/01/11 18:34:55;;;;;;;168.50;93.85;;;;;;;-3.65;84.28;97785.16;10361120;28;20075;-48
2024/01/11 18:39:54;;;;;;;242.00;132.70;;;;;;;-3.77;85.32;97781.16;10362302;28;20084;-48
2024/01/11 18:44:53;;;;;;;;;;;;;;;-3.71;85.58;97795.00;10360669;28;20141;-48
2024/01/11 18:49:52;;;;;;;215.53;119.57;;;;;;;-3.80;85.15;97788.63;10362388;28;19921;-50
2024/01/11 18:54:52;;;;;;;;;;;;;;;-3.80;85.95;97783.53;10360221;28;20474;-47
2024/01/11 18:59:52;;;;;;;142.57;79.63;;;;;;;-3.87;85.04;97783.13;10359257;28;19995;-49
2024/01/11 19:04:52;;;;;;;128.52;73.88;;;;;;;-4.07;85.12;97741.44;10360915;28;20132;-49
2024/01/11 19:09:51;;;;;;;142.43;79.60;;;;;;;-3.93;85.11;97780.25;10359900;28;20127;-49
2024/01/11 19:14:50;;;;;;;150.15;87.50;;;;;;;-4.72;85.45;97636.56;10359329;28;20042;-49
2024/01/11 19:19:49;;;;;;;148.40;86.50;;;;;;;-4.04;84.90;97751.78;10357415;28;20033;-49
2024/01/11 19:24:48;;;;;;;177.00;97.85;;;;;;;-3.89;85.22;97765.28;10359998;28;20041;-49
2024/01/11 19:29:47;;;;;;;177.57;99.97;;;;;;;-4.10;85.47;97744.69;10360694;28;20056;-50
2024/01/11 19:34:46;;;;;;;356.48;179.98;;;;;;;-4.09;85.47;97749.00;10357667;28;20021;-47
2024/01/11 19:39:47;;;;;;;237.23;136.52;;;;;;;-4.15;85.23;97747.78;10358788;28;20033;-47
2024/01/11 19:44:46;;;;;;;235.13;134.40;;;;;;;-4.11;84.98;97777.56;10359164;28;20065;-49
2024/01/11 19:49:45;;;;;;;227.32;123.25;;;;;;;-4.24;85.85;97755.72;10359548;28;20031;-48
2024/01/11 19:54:44;;;;;;;;;;;;;;;-4.16;85.64;97766.28;10360561;28;20029;-48
2024/01/11 19:59:43;;;;;;;171.98;96.10;;;;;;;-4.84;85.21;97663.69;10358308;28;19916;-49
2024/01/11 20:04:42;;;;;;;;;;;;;;;-4.36;85.11;97768.56;10359362;28;20087;-50
2024/01/11 20:09:41;;;;;;;113.82;66.50;;;;;;;-4.45;85.36;97775.63;10364142;28;20390;-49
2024/01/11 20:14:40;;;;;;;113.78;59.08;;;;;;;-4.73;84.86;97745.31;10366125;28;20039;-47
2024/01/11 20:19:38;;;;;;;79.15;47.13;;;;;;;-5.68;84.97;97583.81;10367266;28;20600;-47
2024/01/11 20:24:37;;;;;;;;;;;;;;;-4.60;84.46;97765.50;10367184;28;21797;-47
2024/01/11 20:29:37;;;;;;;107.40;56.03;;;;;;;-4.80;85.04;97745.75;10366278;28;19912;-47
2024/01/11 20:34:36;;;;;;;129.60;71.25;;;;;;;-4.78;85.13;97777.94;10367613;28;20056;-49
2024/01/11 20:39:35;;;;;;;;;;;;;;;-4.76;85.44;97786.50;10367002;28;20108;-48
2024/01/11 20:44:36;;;;;;;140.63;77.47;;;;;;;-4.80;85.40;97789.63;10364934;28;19932;-49
2024/01/11 20:49:35;;;;;;;136.38;77.65;;;;;;;-4.87;85.58;97778.28;10365616;28;20462;-48
2024/01/11 20:54:37;;;;;;;;;;;;;;;-4.80;85.06;97794.69;10365540;28;20502;-48
2024/01/11 20:59:37;;;;;;;195.98;104.72;;;;;;;-4.89;84.88;97792.50;10366098;28;19956;-48
2024/01/11 21:04:36;;;;;;;215.18;115.75;;;;;;;-5.14;85.14;97747.16;10365358;28;20186;-50
2024/01/11 21:09:35;;;;;;;;;;;;;;;-4.88;85.19;97786.66;10362371;28;20396;-47
2024/01/11 21:14:34;;;;;;;270.50;138.65;;;;;;;-5.12;84.53;97755.72;10363581;28;20025;-47
2024/01/11 21:19:33;;;;;;;;;;;;;;;-5.00;85.95;97790.09;10364918;28;20072;-48
2024/01/11 21:24:31;;;;;;;229.77;119.33;;;;;;;-5.04;85.87;97784.88;10363900;28;19933;-46
2024/01/11 21:29:30;;;;;;;;;;;;;;;-5.29;86.72;97774.91;10365219;28;20104;-48
2024/01/11 21:34:29;;;;;;;267.20;135.95;;;;;;;-5.46;86.54;97720.78;10361327;28;19943;-48
2024/01/11 21:39:28;;;;;;;;;;;;;;;-5.16;85.33;97768.97;10363642;28;20036;-48
2024/01/11 21:44:27;;;;;;;366.42;185.85;;;;;;;-5.15;85.75;97774.88;10364858;28;19932;-47
2024/01/11 21:49:25;;;;;;;;;;;;;;;-5.08;85.90;97757.63;10364155;28;20059;-51
2024/01/11 21:54:24;;;;;;;215.30;113.50;;;;;;;-5.63;85.46;97692.78;10364358;28;19928;-48
2024/01/11 21:59:23;;;;;;;;;;;;;;;-5.23;84.47;97766.84;10363729;28;20021;-48
2024/01/11 22:04:22;;;;;;;176.63;91.73;;;;;;;-5.39;84.85;97736.34;10362839;28;19917;-48
2024/01/11 22:09:21;;;;;;;;;;;;;;;-5.30;84.97;97747.91;10363676;28;20506;-48
2024/01/11 22:14:20;;;;;;;119.33;66.47;;;;;;;-5.36;85.06;97737.41;10362978;28;19967;-48
2024/01/11 22:19:19;;;;;;;;;;;;;;;-5.36;85.13;97744.13;10363643;28;20029;-47
2024/01/11 22:24:18;;;;;;;224.93;112.27;;;;;;;-5.38;84.68;97730.50;10362114;28;19963;-47
2024/01/11 22:29:17;;;;;;;;;;;;;;;-5.42;85.38;97724.41;10362633;28;20029;-48
2024/01/11 22:34:16;;;;;;;213.43;113.27;;;;;;;-5.90;84.70;97658.31;10361288;28;19913;-48
2024/01/11 22:39:15;;;;;;;145.70;76.97;;;;;;;-5.64;85.16;97714.63;10361038;28;20816;-49
2024/01/11 22:44:14;;;;;;;;;;;;;;;-5.58;84.94;97732.69;10361729;28;20475;-48
2024/01/11 22:49:13;;;;;;;118.88;61.50;;;;;;;-6.05;84.95;97728.09;10356945;28;20318;-49